Time;durP1;ratioP1;P1;durP2;ratioP2;P2;SDS_P1;SDS_P2;PMS_P1;PMS_P2;Temp;Humidity;BMP_temperature;BMP_pressure;BME280_temperature;BME280_humidity;BME280_pressure;Samples;Min_cycle;Max_cycle;Signal;HPM_P1;HPM_P2
2022/10/31 00:00:27;;;;;;;53.50;29.10;;;;;;;10.13;80.35;99174.70;86096;1298;99442;-76
2022/10/31 00:02:49;;;;;;;43.00;26.80;;;;;;;10.10;80.32;99174.52;86081;1299;22502;-75
2022/10/31 00:04:50;;;;;;;59.90;29.90;;;;;;;10.04;80.28;99171.91;86242;1312;23302;-75
2022/10/31 00:06:52;;;;;;;54.60;30.70;;;;;;;10.02;80.47;99170.25;86054;1284;98945;-76
2022/10/31 00:09:01;;;;;;;53.20;29.50;;;;;;;10.01;80.62;99170.81;85893;1283;25265;-77
2022/10/31 00:11:03;;;;;;;60.10;30.00;;;;;;;9.99;80.45;99173.35;85936;1287;24469;-76
2022/10/31 00:13:06;;;;;;;44.70;27.80;;;;;;;9.97;80.61;99175.20;85932;1304;98552;-77
2022/10/31 00:15:07;;;;;;;56.70;30.00;;;;;;;9.94;80.60;99175.66;85960;1291;22483;-75
2022/10/31 00:17:09;;;;;;;50.20;29.90;;;;;;;9.91;80.42;99175.28;85928;1283;22503;-75
2022/10/31 00:19:10;;;;;;;57.50;30.40;;;;;;;9.88;80.51;99175.05;85857;1283;100080;-75
2022/10/31 00:21:12;;;;;;;51.70;30.30;;;;;;;9.85;80.40;99174.64;85901;1293;24762;-75
2022/10/31 00:23:14;;;;;;;55.30;31.70;;;;;;;9.81;80.59;99176.59;85977;1284;26578;-76
2022/10/31 00:25:15;;;;;;;55.20;31.40;;;;;;;9.75;80.43;99173.67;86040;1292;98064;-77
2022/10/31 00:27:19;;;;;;;53.30;30.00;;;;;;;9.76;80.64;99185.04;86079;1296;22614;-75
2022/10/31 00:29:21;;;;;;;59.90;31.60;;;;;;;9.74;80.64;99182.81;85952;1283;23887;-75
2022/10/31 00:31:23;;;;;;;54.60;31.30;;;;;;;9.72;80.73;99186.43;85756;1283;98052;-76
2022/10/31 00:33:24;;;;;;;54.00;29.50;;;;;;;9.70;80.56;99185.25;85972;1290;22491;-75
2022/10/31 00:35:26;;;;;;;54.60;28.30;;;;;;;9.68;80.72;99184.83;85931;1291;24241;-77
2022/10/31 00:37:27;;;;;;;56.60;31.30;;;;;;;9.64;80.54;99183.58;85800;1283;99801;-77
2022/10/31 00:39:29;;;;;;;53.40;30.00;;;;;;;9.61;80.66;99183.55;85671;1292;22501;-77
2022/10/31 00:41:30;;;;;;;51.50;31.30;;;;;;;9.58;80.81;99182.44;85863;1290;23686;-78
2022/10/31 00:43:32;;;;;;;59.50;31.20;;;;;;;9.56;80.70;99185.52;85829;1289;99206;-77
2022/10/31 00:45:33;;;;;;;53.60;31.50;;;;;;;9.54;80.84;99186.61;85772;1283;22501;-76
2022/10/31 00:47:35;;;;;;;58.60;31.70;;;;;;;9.53;80.62;99187.20;85791;1296;22483;-76
2022/10/31 00:49:36;;;;;;;57.50;31.70;;;;;;;9.52;80.98;99188.96;85710;1289;98794;-76
2022/10/31 00:51:38;;;;;;;49.80;30.30;;;;;;;9.50;80.82;99190.45;85928;1290;22492;-77
2022/10/31 00:53:39;;;;;;;61.70;29.90;;;;;;;9.48;80.99;99190.91;85751;1291;22601;-76
2022/10/31 00:55:41;;;;;;;52.70;30.50;;;;;;;9.44;80.89;99191.59;85710;1287;100329;-75
2022/10/31 00:57:42;;;;;;;47.00;28.00;;;;;;;9.43;80.98;99191.47;85696;1291;25007;-75
2022/10/31 00:59:44;;;;;;;51.20;31.90;;;;;;;9.40;80.73;99194.71;85602;1299;99732;-75
2022/10/31 01:01:45;;;;;;;49.90;30.00;;;;;;;9.38;80.90;99190.39;86017;1312;25283;-74
2022/10/31 01:03:47;;;;;;;44.50;29.80;;;;;;;9.37;80.79;99192.72;85825;1297;22497;-74
2022/10/31 01:06:06;;;;;;;49.30;29.50;;;;;;;9.35;80.73;99191.42;85703;1291;100109;-74
2022/10/31 01:08:08;;;;;;;51.40;31.30;;;;;;;9.32;80.92;99189.95;85957;1301;22473;-74
2022/10/31 01:10:10;;;;;;;64.50;33.70;;;;;;;9.31;80.93;99190.19;85800;1290;24516;-73
2022/10/31 01:12:12;;;;;;;52.50;30.70;;;;;;;9.27;80.86;99188.21;85747;1296;99261;-74
2022/10/31 01:14:13;;;;;;;48.70;31.20;;;;;;;9.24;81.12;99184.85;86018;1290;22649;-74
2022/10/31 01:16:17;;;;;;;43.80;28.30;;;;;;;9.22;81.01;99187.36;85808;1291;23458;-74
2022/10/31 01:18:19;;;;;;;50.30;30.00;;;;;;;9.19;80.76;99186.08;85837;1290;99794;-74
2022/10/31 01:20:21;;;;;;;56.50;31.20;;;;;;;9.15;80.80;99184.66;85596;1286;22970;-72
2022/10/31 01:22:22;;;;;;;52.90;29.90;;;;;;;9.13;80.72;99185.25;85919;1284;23522;-74
2022/10/31 01:24:24;;;;;;;48.30;29.40;;;;;;;9.10;80.71;99182.77;85692;1286;99049;-74
2022/10/31 01:26:28;;;;;;;47.60;29.10;;;;;;;9.09;80.78;99184.73;85746;1290;22654;-74
2022/10/31 01:28:29;;;;;;;48.20;29.50;;;;;;;9.08;81.01;99185.13;85969;1291;22484;-74
2022/10/31 01:30:31;;;;;;;57.00;28.10;;;;;;;9.05;80.92;99181.91;85767;1291;99567;-74
2022/10/31 01:32:33;;;;;;;50.10;30.40;;;;;;;9.03;80.77;99183.52;85874;1290;22504;-74
2022/10/31 01:34:35;;;;;;;52.50;31.80;;;;;;;9.02;80.80;99176.03;85951;1284;22484;-74
2022/10/31 01:36:37;;;;;;;44.60;28.60;;;;;;;9.02;80.96;99176.73;85773;1283;99715;-74
2022/10/31 01:38:39;;;;;;;51.70;28.60;;;;;;;9.01;81.07;99177.83;85795;1291;22566;-74
2022/10/31 01:40:41;;;;;;;51.80;30.10;;;;;;;9.00;80.99;99176.11;85860;1284;22579;-74
2022/10/31 01:42:42;;;;;;;56.20;29.90;;;;;;;8.99;81.01;99175.43;85892;1291;98150;-74
2022/10/31 01:44:50;;;;;;;52.30;30.50;;;;;;;8.99;81.12;99172.30;85820;1291;22974;-74
2022/10/31 01:46:57;;;;;;;48.60;28.10;;;;;;;8.98;81.03;99170.76;85929;1290;24445;-74
2022/10/31 01:49:05;;;;;;;50.00;30.20;;;;;;;8.96;81.11;99166.11;85867;1290;98338;-77
2022/10/31 01:51:13;;;;;;;49.90;29.50;;;;;;;8.94;81.17;99162.89;85585;1292;25205;-75
2022/10/31 01:53:16;;;;;;;44.90;27.30;;;;;;;8.95;81.38;99161.94;85952;1292;22961;-74
2022/10/31 01:55:30;;;;;;;55.60;30.30;;;;;;;8.93;81.34;99166.38;86082;1292;97989;-73
2022/10/31 01:57:35;;;;;;;53.40;31.00;;;;;;;8.92;81.04;99160.67;85743;1300;24220;-72
2022/10/31 01:59:42;;;;;;;52.00;28.90;;;;;;;8.91;81.26;99165.24;85795;1298;25414;-72
2022/10/31 02:01:44;;;;;;;51.60;29.30;;;;;;;8.90;80.98;99167.02;85708;1309;99050;-73
2022/10/31 02:03:47;;;;;;;51.80;29.10;;;;;;;8.89;81.27;99170.61;85764;1293;25302;-73
2022/10/31 02:05:50;;;;;;;48.80;26.40;;;;;;;8.87;81.24;99168.21;85851;1313;99739;-73
2022/10/31 02:08:15;;;;;;;44.80;29.00;;;;;;;8.85;81.11;99164.96;86188;1311;24297;-73
2022/10/31 02:10:19;;;;;;;48.40;28.30;;;;;;;8.83;81.04;99168.01;86037;1289;24679;-74
2022/10/31 02:12:21;;;;;;;56.80;30.30;;;;;;;8.82;81.28;99168.94;86008;1297;97969;-74
2022/10/31 02:14:25;;;;;;;48.20;28.80;;;;;;;8.81;81.33;99171.05;86056;1314;22606;-73
2022/10/31 02:16:27;;;;;;;53.20;30.40;;;;;;;8.80;81.28;99167.42;85807;1299;28717;-73
2022/10/31 02:18:30;;;;;;;49.00;29.10;;;;;;;8.78;81.28;99168.20;85897;1288;100348;-73
2022/10/31 02:20:43;;;;;;;45.80;28.70;;;;;;;8.77;81.15;99169.46;85882;1297;25334;-74
2022/10/31 02:23:10;;;;;;;51.40;29.10;;;;;;;8.75;81.26;99168.87;85921;1290;22558;-74
2022/10/31 02:25:21;;;;;;;56.20;29.60;;;;;;;8.74;81.25;99168.90;85852;1289;98206;-74
2022/10/31 02:27:36;;;;;;;49.70;29.60;;;;;;;8.72;81.31;99174.56;85922;1291;24338;-74
2022/10/31 02:30:01;;;;;;;50.60;28.00;;;;;;;8.70;81.21;99173.76;85760;1304;24278;-73
2022/10/31 02:32:11;;;;;;;47.20;28.10;;;;;;;8.67;80.99;99177.71;85746;1313;24270;-74
2022/10/31 02:34:46;;;;;;;42.30;25.90;;;;;;;8.66;81.60;99176.34;85911;1290;25671;-74
2022/10/31 02:37:16;;;;;;;50.40;29.30;;;;;;;8.62;81.10;99180.86;85817;1298;99253;-74
2022/10/31 02:39:26;;;;;;;52.40;29.20;;;;;;;8.61;81.36;99181.79;85859;1298;22784;-74
2022/10/31 02:41:43;;;;;;;54.40;30.40;;;;;;;8.59;81.42;99180.10;85896;1297;22893;-73
2022/10/31 02:43:56;;;;;;;43.80;28.20;;;;;;;8.58;81.27;99180.49;85830;1296;98894;-73
2022/10/31 02:46:08;;;;;;;46.70;29.60;;;;;;;8.58;81.64;99181.05;85810;1314;22602;-73
2022/10/31 02:48:16;;;;;;;52.10;29.00;;;;;;;8.57;81.53;99184.92;85789;1283;99164;-73
2022/10/31 02:50:20;;;;;;;56.80;29.80;;;;;;;8.55;81.31;99184.63;85763;1291;22473;-73
2022/10/31 02:52:28;;;;;;;51.80;30.30;;;;;;;8.55;81.15;99185.70;85835;1283;22571;-73
2022/10/31 02:54:31;;;;;;;56.80;30.20;;;;;;;8.54;81.27;99190.79;85926;1284;105508;-74
2022/10/31 02:56:34;;;;;;;44.70;28.40;;;;;;;8.54;81.29;99190.46;85846;1283;22586;-73
2022/10/31 02:58:40;;;;;;;45.40;28.10;;;;;;;8.52;81.55;99196.81;85881;1304;24293;-74
2022/10/31 03:01:17;;;;;;;46.00;28.10;;;;;;;8.50;81.41;99195.32;85851;1294;98992;-74
2022/10/31 03:03:39;;;;;;;46.50;28.40;;;;;;;8.49;81.60;99192.72;85845;1297;22514;-73
2022/10/31 03:06:10;;;;;;;46.90;27.00;;;;;;;8.50;81.50;99194.60;85902;1293;26918;-73
2022/10/31 03:08:23;;;;;;;46.90;26.70;;;;;;;8.49;81.58;99192.73;85506;1318;22555;-74
2022/10/31 03:10:33;;;;;;;45.40;26.60;;;;;;;8.49;81.33;99196.24;85512;1296;22497;-74
2022/10/31 03:12:53;;;;;;;59.50;29.70;;;;;;;8.48;81.63;99194.70;85389;1296;99281;-74
2022/10/31 03:15:13;;;;;;;51.20;28.00;;;;;;;8.47;81.67;99198.05;85386;1289;24328;-74
2022/10/31 03:17:25;;;;;;;48.30;29.60;;;;;;;8.49;81.50;99197.30;85528;1290;22502;-74
2022/10/31 03:19:29;;;;;;;;;;;;;;;8.50;81.58;99199.70;85266;1312;98171;-73
2022/10/31 03:21:54;;;;;;;46.00;28.40;;;;;;;8.49;81.86;99198.69;85555;1296;22511;-73
2022/10/31 03:23:57;;;;;;;47.30;28.00;;;;;;;8.50;81.77;99199.34;85431;1319;24380;-73
2022/10/31 03:26:03;;;;;;;49.10;28.10;;;;;;;8.50;81.74;99199.88;85382;1303;24368;-74
2022/10/31 03:28:06;;;;;;;57.20;29.30;;;;;;;8.51;81.75;99200.89;85225;1307;22497;-74
2022/10/31 03:30:08;;;;;;;47.90;26.70;;;;;;;8.52;81.68;99206.82;85358;1305;98383;-74
2022/10/31 03:32:17;;;;;;;48.20;28.20;;;;;;;8.55;81.76;99205.82;85451;1303;26034;-73
2022/10/31 03:34:20;;;;;;;44.00;27.70;;;;;;;8.58;81.64;99206.08;85267;1306;26995;-73
2022/10/31 03:36:22;;;;;;;42.80;26.40;;;;;;;8.60;82.05;99204.42;85190;1305;98195;-74
2022/10/31 03:38:25;;;;;;;46.90;27.30;;;;;;;8.62;81.87;99209.25;85212;1321;25526;-74
2022/10/31 03:40:27;;;;;;;40.50;26.00;;;;;;;8.63;81.99;99209.75;85343;1302;22531;-74
2022/10/31 03:42:33;;;;;;;45.70;25.40;;;;;;;8.63;81.77;99208.36;85214;1306;99119;-74
2022/10/31 03:44:36;;;;;;;53.80;26.70;;;;;;;8.62;81.70;99212.42;85532;1303;23936;-74
2022/10/31 03:46:39;;;;;;;40.30;25.80;;;;;;;8.61;81.84;99208.93;86070;1302;23330;-74
2022/10/31 03:48:40;;;;;;;46.00;26.60;;;;;;;8.60;81.55;99212.13;85808;1290;99195;-74
2022/10/31 03:50:53;;;;;;;39.90;25.10;;;;;;;8.59;81.77;99208.48;85889;1314;23053;-75
2022/10/31 03:53:21;;;;;;;52.60;25.60;;;;;;;8.59;82.06;99210.79;85948;1295;25556;-73
2022/10/31 03:55:35;;;;;;;52.10;23.30;;;;;;;8.57;81.79;99207.86;85924;1290;99046;-74
2022/10/31 03:57:51;;;;;;;50.10;25.00;;;;;;;8.55;81.83;99212.12;85851;1291;30706;-73
2022/10/31 04:00:04;;;;;;;51.20;25.40;;;;;;;8.55;81.88;99213.20;85878;1291;26767;-73
2022/10/31 04:02:14;;;;;;;54.50;24.80;;;;;;;8.54;81.68;99210.41;86159;1297;22601;-74
2022/10/31 04:04:16;;;;;;;42.10;26.20;;;;;;;8.53;82.19;99209.60;85690;1300;22503;-73
2022/10/31 04:06:21;;;;;;;45.50;25.00;;;;;;;8.52;81.97;99206.48;85779;1296;100706;-73
2022/10/31 04:08:29;;;;;;;39.50;25.30;;;;;;;8.50;81.99;99213.02;86142;1287;22558;-73
2022/10/31 04:10:34;;;;;;;40.60;25.00;;;;;;;8.48;81.67;99210.98;86068;1284;22507;-74
2022/10/31 04:12:39;;;;;;;40.80;23.90;;;;;;;8.46;81.78;99213.31;86126;1283;99349;-73
2022/10/31 04:14:44;;;;;;;44.50;25.70;;;;;;;8.44;81.92;99210.93;85938;1283;24279;-72
2022/10/31 04:16:46;;;;;;;43.20;25.10;;;;;;;8.44;81.91;99212.50;85930;1283;24383;-74
2022/10/31 04:18:47;;;;;;;42.40;27.00;;;;;;;8.43;81.51;99213.42;85902;1289;98104;-74
2022/10/31 04:20:49;;;;;;;47.70;27.70;;;;;;;8.42;81.96;99215.70;85945;1283;22496;-74
2022/10/31 04:22:51;;;;;;;45.90;26.50;;;;;;;8.42;81.98;99216.42;86176;1290;22530;-73
2022/10/31 04:24:53;;;;;;;45.20;29.30;;;;;;;8.39;81.66;99220.38;86073;1284;99254;-76
2022/10/31 04:26:55;;;;;;;48.80;28.10;;;;;;;8.38;82.13;99216.91;85950;1300;22490;-73
2022/10/31 04:28:57;;;;;;;41.00;27.60;;;;;;;8.37;81.60;99216.40;85872;1288;24251;-73
2022/10/31 04:30:58;;;;;;;41.70;27.40;;;;;;;8.37;81.88;99219.77;85856;1290;97945;-74
2022/10/31 04:33:00;;;;;;;55.90;31.40;;;;;;;8.35;82.04;99218.23;85977;1289;23050;-74
2022/10/31 04:35:01;;;;;;;51.00;29.30;;;;;;;8.33;82.03;99219.16;85715;1292;24197;-74
2022/10/31 04:37:03;;;;;;;49.00;28.20;;;;;;;8.31;81.78;99220.82;85836;1283;100973;-74
2022/10/31 04:39:04;;;;;;;51.30;30.00;;;;;;;8.25;81.85;99210.01;85810;1283;22712;-74
2022/10/31 04:41:06;;;;;;;49.80;29.40;;;;;;;8.29;81.91;99217.40;85782;1299;22525;-74
2022/10/31 04:43:07;;;;;;;42.20;26.70;;;;;;;8.27;81.70;99216.60;85806;1304;98169;-74
2022/10/31 04:45:09;;;;;;;51.90;29.20;;;;;;;8.26;81.79;99212.61;85880;1297;22562;-73
2022/10/31 04:47:11;;;;;;;47.90;28.60;;;;;;;8.24;81.94;99215.66;85869;1290;24226;-74
2022/10/31 04:49:12;;;;;;;55.60;27.60;;;;;;;8.23;81.84;99218.12;85716;1313;99358;-74
2022/10/31 04:51:14;;;;;;;58.10;30.50;;;;;;;8.22;81.84;99218.33;85792;1300;22517;-74
2022/10/31 04:53:15;;;;;;;57.60;29.70;;;;;;;8.21;82.13;99222.42;85734;1300;23797;-74
2022/10/31 04:55:17;;;;;;;50.90;28.30;;;;;;;8.15;81.88;99214.90;85735;1298;98216;-74
2022/10/31 04:57:18;;;;;;;46.00;27.50;;;;;;;8.20;82.02;99224.36;85773;1315;22943;-73
2022/10/31 04:59:20;;;;;;;51.20;29.90;;;;;;;8.21;81.85;99222.25;85918;1313;24373;-74
2022/10/31 05:01:21;;;;;;;53.60;27.10;;;;;;;8.21;82.09;99222.41;85743;1298;101638;-73
2022/10/31 05:03:23;;;;;;;47.40;28.80;;;;;;;8.20;82.00;99221.73;85800;1298;22583;-74
2022/10/31 05:05:28;;;;;;;48.20;27.80;;;;;;;8.20;82.11;99221.39;85717;1302;22525;-74
2022/10/31 05:07:30;;;;;;;49.20;29.20;;;;;;;8.18;82.31;99224.41;85711;1307;99184;-73
2022/10/31 05:09:31;;;;;;;48.50;27.10;;;;;;;8.17;81.94;99224.64;85989;1296;24206;-73
2022/10/31 05:11:33;;;;;;;51.70;29.00;;;;;;;8.18;82.13;99222.34;85875;1306;22658;-73
2022/10/31 05:13:35;;;;;;;49.60;26.60;;;;;;;8.20;82.23;99224.20;85706;1299;99200;-74
2022/10/31 05:15:36;;;;;;;48.40;27.40;;;;;;;8.21;82.41;99226.27;85863;1290;23732;-73
2022/10/31 05:17:38;;;;;;;52.30;26.10;;;;;;;8.23;82.27;99225.30;85898;1296;22695;-74
2022/10/31 05:19:39;;;;;;;54.10;27.30;;;;;;;8.25;82.57;99226.45;85819;1300;99311;-73
2022/10/31 05:21:41;;;;;;;51.20;25.40;;;;;;;8.29;82.76;99227.02;85771;1302;24348;-73
2022/10/31 05:23:42;;;;;;;49.50;27.60;;;;;;;8.30;82.43;99228.22;85627;1300;23400;-73
2022/10/31 05:25:44;;;;;;;45.20;26.00;;;;;;;8.31;82.49;99231.33;85896;1298;99170;-73
2022/10/31 05:27:47;;;;;;;44.60;25.80;;;;;;;8.32;82.82;99231.29;85927;1290;22574;-73
2022/10/31 05:29:49;;;;;;;47.20;26.10;;;;;;;8.33;82.49;99234.05;85889;1300;25833;-75
2022/10/31 05:31:50;;;;;;;53.70;27.70;;;;;;;8.34;82.80;99236.80;85930;1298;99158;-74
2022/10/31 05:33:52;;;;;;;42.90;27.20;;;;;;;8.38;82.66;99242.30;85998;1291;22559;-74
2022/10/31 05:35:53;;;;;;;50.60;29.20;;;;;;;8.41;82.83;99241.00;85879;1300;23627;-74
2022/10/31 05:37:55;;;;;;;52.10;28.50;;;;;;;8.43;82.62;99241.59;85886;1293;99431;-74
2022/10/31 05:39:56;;;;;;;48.70;26.10;;;;;;;8.46;82.52;99242.59;85989;1303;22616;-74
2022/10/31 05:41:58;;;;;;;54.90;28.70;;;;;;;8.48;82.84;99245.98;85901;1307;22676;-75
2022/10/31 05:43:59;;;;;;;60.30;29.10;;;;;;;8.49;82.96;99243.85;85818;1299;99097;-75
2022/10/31 05:46:01;;;;;;;47.70;26.70;;;;;;;8.51;82.80;99250.27;85946;1301;22464;-75
2022/10/31 05:48:03;;;;;;;59.20;28.50;;;;;;;8.54;82.45;99250.88;85908;1306;99239;-75
2022/10/31 05:50:06;;;;;;;47.60;25.70;;;;;;;8.55;82.56;99253.46;85806;1294;22501;-75
2022/10/31 05:52:07;;;;;;;45.60;25.50;;;;;;;8.54;82.60;99250.16;85914;1294;27018;-74
2022/10/31 05:54:09;;;;;;;50.50;26.80;;;;;;;8.54;82.79;99252.11;85919;1300;101154;-75
2022/10/31 05:56:10;;;;;;;58.90;27.00;;;;;;;8.54;82.43;99254.55;85848;1315;22564;-75
2022/10/31 05:58:12;;;;;;;54.90;27.40;;;;;;;8.55;82.69;99253.12;85906;1291;22491;-75
2022/10/31 06:00:13;;;;;;;58.70;30.40;;;;;;;8.56;82.47;99257.31;85879;1284;98563;-75
2022/10/31 06:02:15;;;;;;;53.20;28.40;;;;;;;8.57;82.61;99260.60;85950;1290;22511;-74
2022/10/31 06:04:16;;;;;;;45.40;27.80;;;;;;;8.57;82.74;99261.79;85987;1288;24341;-75
2022/10/31 06:06:18;;;;;;;50.50;28.70;;;;;;;8.59;82.69;99263.13;85901;1290;99448;-74
2022/10/31 06:08:19;;;;;;;61.10;28.70;;;;;;;8.61;82.72;99263.93;86081;1284;22490;-74
2022/10/31 06:10:21;;;;;;;60.80;29.30;;;;;;;8.63;82.83;99269.45;86006;1290;23409;-75
2022/10/31 06:12:23;;;;;;;52.40;29.90;;;;;;;8.66;83.07;99270.92;85943;1287;100988;-75
2022/10/31 06:14:24;;;;;;;49.50;30.00;;;;;;;8.69;82.76;99269.08;86005;1290;22480;-75
2022/10/31 06:16:26;;;;;;;54.70;29.20;;;;;;;8.74;83.11;99269.29;86126;1283;22506;-75
2022/10/31 06:18:28;;;;;;;53.00;29.70;;;;;;;8.78;82.90;99273.67;85948;1283;101149;-75
2022/10/31 06:20:29;;;;;;;52.90;29.90;;;;;;;8.82;82.97;99272.98;85923;1291;22540;-75
2022/10/31 06:22:31;;;;;;;50.60;28.20;;;;;;;8.85;82.79;99274.82;86063;1283;25299;-75
2022/10/31 06:24:33;;;;;;;51.80;27.40;;;;;;;8.89;82.96;99276.95;85808;1291;101161;-75
2022/10/31 06:26:34;;;;;;;55.00;30.10;;;;;;;8.91;82.74;99280.02;86093;1290;22988;-75
2022/10/31 06:28:36;;;;;;;56.00;30.30;;;;;;;8.93;82.87;99283.46;86100;1284;22549;-75
2022/10/31 06:30:37;;;;;;;63.70;30.70;;;;;;;8.97;83.11;99285.27;85906;1289;100889;-75
2022/10/31 06:32:39;;;;;;;58.70;30.00;;;;;;;8.99;82.86;99287.63;86016;1291;22560;-75
2022/10/31 06:34:41;;;;;;;62.40;30.70;;;;;;;9.03;83.11;99291.70;85909;1291;22503;-75
2022/10/31 06:36:43;;;;;;;57.10;31.00;;;;;;;9.08;83.04;99294.52;85913;1283;100368;-75
2022/10/31 06:38:44;;;;;;;59.50;30.30;;;;;;;9.12;82.98;99297.68;86049;1284;22747;-74
2022/10/31 06:40:46;;;;;;;63.20;30.80;;;;;;;9.16;83.03;99297.52;86064;1287;25108;-75
2022/10/31 06:42:59;;;;;;;67.00;30.00;;;;;;;9.21;83.10;99299.65;85914;1284;98628;-75
2022/10/31 06:45:00;;;;;;;53.20;30.60;;;;;;;9.25;83.03;99298.06;85988;1290;22486;-75
2022/10/31 06:47:02;;;;;;;54.10;30.50;;;;;;;9.30;83.18;99301.89;86041;1287;24175;-74
2022/10/31 06:49:03;;;;;;;59.00;31.10;;;;;;;9.36;83.08;99304.46;85850;1284;98838;-75
2022/10/31 06:51:05;;;;;;;56.60;32.40;;;;;;;9.43;83.20;99300.89;86008;1290;25013;-73
2022/10/31 06:53:08;;;;;;;64.10;32.80;;;;;;;9.50;83.19;99302.75;86125;1307;25162;-75
2022/10/31 06:55:11;;;;;;;59.10;32.90;;;;;;;9.57;83.52;99303.16;86068;1290;99252;-75
2022/10/31 06:57:12;;;;;;;55.00;34.00;;;;;;;9.65;83.37;99303.05;85996;1290;22491;-74
2022/10/31 06:59:15;;;;;;;66.50;31.60;;;;;;;9.72;83.30;99302.75;85958;1307;23062;-73
2022/10/31 07:01:17;;;;;;;55.90;31.30;;;;;;;9.79;83.33;99305.46;85864;1297;99757;-74
2022/10/31 07:03:20;;;;;;;62.50;31.50;;;;;;;9.86;83.32;99304.66;86111;1292;26102;-74
2022/10/31 07:05:21;;;;;;;53.40;30.50;;;;;;;9.94;83.14;99305.77;85701;1292;26567;-74
2022/10/31 07:07:23;;;;;;;52.20;30.10;;;;;;;10.01;83.19;99308.97;85996;1291;98736;-74
2022/10/31 07:09:24;;;;;;;60.80;31.00;;;;;;;10.05;83.14;99303.02;86088;1287;22626;-73
2022/10/31 07:11:26;;;;;;;54.40;29.50;;;;;;;10.15;83.08;99309.30;85962;1291;22491;-74
2022/10/31 07:13:27;;;;;;;48.60;28.90;;;;;;;10.21;83.10;99307.45;85875;1290;98487;-74
2022/10/31 07:15:32;;;;;;;66.70;31.30;;;;;;;10.29;83.12;99312.07;85976;1289;24296;-74
2022/10/31 07:17:34;;;;;;;56.80;28.40;;;;;;;10.35;83.13;99311.63;85964;1283;22974;-73
2022/10/31 07:19:35;;;;;;;58.10;29.00;;;;;;;10.42;83.00;99313.32;85812;1284;101632;-74
2022/10/31 07:21:37;;;;;;;49.30;28.10;;;;;;;10.48;83.12;99315.70;85904;1291;22514;-74
2022/10/31 07:23:38;;;;;;;45.30;27.40;;;;;;;10.55;83.06;99316.09;85980;1291;22492;-74
2022/10/31 07:25:41;;;;;;;61.20;28.70;;;;;;;10.61;83.00;99316.36;85987;1289;99468;-74
2022/10/31 07:27:43;;;;;;;47.90;27.10;;;;;;;10.67;82.95;99314.71;86177;1283;22445;-74
2022/10/31 07:29:44;;;;;;;44.90;27.50;;;;;;;10.73;82.89;99316.39;86121;1291;23077;-74
2022/10/31 07:31:46;;;;;;;51.70;28.80;;;;;;;10.80;82.91;99315.91;86267;1283;100632;-74
2022/10/31 07:33:48;;;;;;;53.70;28.10;;;;;;;10.87;82.87;99315.27;86222;1294;22532;-74
2022/10/31 07:35:49;;;;;;;57.20;28.40;;;;;;;10.95;83.01;99314.73;86302;1289;22593;-74
2022/10/31 07:37:51;;;;;;;57.30;28.10;;;;;;;11.04;82.96;99311.50;86239;1287;99066;-73
2022/10/31 07:39:53;;;;;;;73.20;29.40;;;;;;;11.15;82.97;99313.29;86139;1291;22567;-73
2022/10/31 07:41:58;;;;;;;50.80;27.90;;;;;;;11.26;82.98;99316.14;85971;1290;284544;-73
2022/10/31 07:43:59;;;;;;;48.00;24.80;;;;;;;11.39;82.98;99316.98;86004;1289;99425;-74
2022/10/31 07:46:01;;;;;;;43.30;25.60;;;;;;;11.42;82.91;99304.33;86128;1291;23861;-74
2022/10/31 07:48:03;;;;;;;54.30;26.00;;;;;;;11.63;82.90;99311.83;86048;1290;98916;-73
2022/10/31 07:50:07;;;;;;;52.70;25.20;;;;;;;11.75;82.71;99312.48;85893;1289;23297;-73
2022/10/31 07:52:08;;;;;;;40.20;23.50;;;;;;;11.88;82.70;99312.55;86251;1288;24274;-73
2022/10/31 07:54:10;;;;;;;42.00;22.60;;;;;;;12.01;82.85;99313.18;85840;1290;100655;-74
2022/10/31 07:56:11;;;;;;;36.10;21.50;;;;;;;12.16;82.72;99312.48;86204;1283;22890;-74
2022/10/31 07:58:15;;;;;;;39.30;19.10;;;;;;;12.28;82.46;99310.27;85907;1290;22598;-74
2022/10/31 08:00:17;;;;;;;33.80;19.10;;;;;;;12.41;82.46;99308.05;85823;1290;101128;-74
2022/10/31 08:02:19;;;;;;;36.20;18.20;;;;;;;12.56;82.33;99312.23;85958;1283;24416;-74
2022/10/31 08:04:20;;;;;;;30.80;15.50;;;;;;;12.71;82.24;99307.80;86163;1291;24252;-74
2022/10/31 08:06:22;;;;;;;25.20;14.60;;;;;;;12.84;82.08;99308.86;86379;1286;98769;-75
2022/10/31 08:08:24;;;;;;;42.40;15.80;;;;;;;12.96;81.79;99311.23;86405;1284;22475;-76
2022/10/31 08:10:27;;;;;;;27.10;14.30;;;;;;;13.07;81.92;99307.48;86349;1290;22696;-75
2022/10/31 08:12:28;;;;;;;29.60;14.70;;;;;;;13.17;81.80;99305.89;86212;1287;98180;-74
2022/10/31 08:14:30;;;;;;;25.50;13.50;;;;;;;13.26;81.61;99306.81;86359;1291;22812;-73
2022/10/31 08:16:32;;;;;;;22.90;13.30;;;;;;;13.37;81.73;99308.88;86530;1290;22547;-76
2022/10/31 08:18:33;;;;;;;36.30;13.30;;;;;;;13.50;81.43;99300.27;86409;1297;99188;-76
2022/10/31 08:20:35;;;;;;;29.90;12.20;;;;;;;13.67;81.43;99301.46;85859;1291;25727;-76
2022/10/31 08:22:36;;;;;;;26.80;13.40;;;;;;;13.85;81.33;99301.89;85874;1288;26701;-75
2022/10/31 08:24:38;;;;;;;32.60;13.40;;;;;;;14.01;81.00;99305.23;85845;1284;99351;-76
2022/10/31 08:26:39;;;;;;;26.00;13.30;;;;;;;14.12;81.14;99301.77;85866;1290;22517;-74
2022/10/31 08:28:41;;;;;;;26.00;12.60;;;;;;;14.24;80.98;99303.34;85851;1284;22505;-74
2022/10/31 08:30:43;;;;;;;31.80;12.40;;;;;;;14.34;80.74;99302.24;85843;1290;99242;-75
2022/10/31 08:32:44;;;;;;;35.00;13.90;;;;;;;14.43;80.68;99303.83;85790;1289;22484;-75
2022/10/31 08:34:45;;;;;;;29.20;11.20;;;;;;;14.56;80.66;99299.21;85859;1284;22485;-74
2022/10/31 08:36:47;;;;;;;30.20;12.40;;;;;;;14.63;80.36;99304.09;85904;1286;101606;-75
2022/10/31 08:38:49;;;;;;;22.10;10.40;;;;;;;14.71;80.16;99303.95;85642;1283;22550;-74
2022/10/31 08:40:50;;;;;;;22.20;9.60;;;;;;;14.81;80.04;99306.04;85773;1289;22577;-75
2022/10/31 08:43:24;;;;;;;35.90;10.50;;;;;;;14.93;79.90;99305.65;85775;1290;98206;-75
2022/10/31 08:45:27;;;;;;;29.70;9.80;;;;;;;15.10;79.83;99301.47;85297;1296;25499;-75
2022/10/31 08:47:29;;;;;;;27.50;11.60;;;;;;;15.22;79.67;99305.33;84910;1296;22802;-75
2022/10/31 08:49:30;;;;;;;20.50;11.40;;;;;;;15.33;79.54;99306.60;84827;1299;100180;-75
2022/10/31 08:51:32;;;;;;;30.90;12.70;;;;;;;15.42;79.54;99299.29;85169;1296;22529;-74
2022/10/31 08:53:33;;;;;;;23.80;12.10;;;;;;;15.50;79.25;99299.70;85119;1298;25384;-74
2022/10/31 08:55:36;;;;;;;29.20;11.50;;;;;;;15.57;79.37;99298.68;85183;1289;99658;-74
2022/10/31 08:57:38;;;;;;;27.50;12.80;;;;;;;15.65;79.33;99298.52;84962;1292;22572;-74
2022/10/31 08:59:40;;;;;;;23.10;13.00;;;;;;;15.73;79.18;99294.86;85167;1299;22562;-75
2022/10/31 09:01:41;;;;;;;28.20;13.10;;;;;;;15.81;79.15;99295.45;85167;1295;100331;-74
2022/10/31 09:03:43;;;;;;;29.50;14.40;;;;;;;15.91;79.18;99292.16;84954;1297;25786;-74
2022/10/31 09:05:45;;;;;;;36.80;14.40;;;;;;;16.00;79.19;99289.23;85215;1295;22623;-75
2022/10/31 09:07:47;;;;;;;44.20;15.40;;;;;;;16.09;79.19;99289.20;85352;1295;99264;-75
2022/10/31 09:09:48;;;;;;;33.10;13.60;;;;;;;16.17;79.05;99291.86;85309;1295;22553;-75
2022/10/31 09:11:50;;;;;;;30.50;12.70;;;;;;;16.27;78.95;99294.92;85296;1299;22901;-76
2022/10/31 09:13:52;;;;;;;33.20;13.20;;;;;;;16.35;78.89;99297.39;85177;1298;98148;-74
2022/10/31 09:15:56;;;;;;;28.70;15.00;;;;;;;16.44;78.80;99297.66;85191;1299;22510;-76
2022/10/31 09:17:58;;;;;;;31.80;14.60;;;;;;;16.53;78.78;99296.40;85398;1295;22639;-75
2022/10/31 09:19:59;;;;;;;35.00;13.80;;;;;;;16.61;78.71;99300.97;84940;1299;100060;-76
2022/10/31 09:22:01;;;;;;;31.60;13.60;;;;;;;16.71;78.62;99303.30;85508;1287;22637;-76
2022/10/31 09:24:03;;;;;;;32.40;13.90;;;;;;;16.84;78.59;99300.45;86021;1290;25302;-76
2022/10/31 09:26:05;;;;;;;29.40;12.90;;;;;;;16.92;78.51;99297.99;86163;1290;22619;-76
2022/10/31 09:28:10;;;;;;;30.60;13.40;;;;;;;17.02;78.22;99300.30;86016;1290;22545;-76
2022/10/31 09:30:12;;;;;;;37.30;13.40;;;;;;;17.10;78.26;99300.64;85736;1290;98563;-76
2022/10/31 09:32:13;;;;;;;35.20;12.40;;;;;;;17.19;78.18;99297.70;86064;1291;22481;-76
2022/10/31 09:34:15;;;;;;;26.40;12.20;;;;;;;17.29;78.05;99299.33;86003;1298;23387;-76